Station Historical Data
Daily Summary for May 9, 2017 Units:  Both    English   Metric
« Previous Day
Next Day »
Daily Weekly Monthly Yearly Custom
  High: Low: Average:
Temperature: 55.6 °F /  13.1 °C 32.8 °F /  0.4 °C 46.2 °F /  7.9 °C
Dew Point: 36.7 °F /  2.6 °C 24.5 °F /  -4.2 °C 30.8 °F /  -0.7 °C
Humidity: 81% 37% 56%
Wind Speed: 10.0mph /  16.1km/h - 2.5mph /  4km/h
Wind Gust: 14.0mph /  22.5km/h - -
Wind- - SSW
Pressure: 30.04 in /  1017.2 hPa 29.95 in /  1014.1 hPa -
Precipitation: 0.00 in /  0 mm    
Historical Graphs
 
 
Tabular Data for May 9, 2017
Time Temperature Dew Point Pressure Wind Wind Speed Wind Gust Humidity Rainfall Rate (Hourly)
00:04 41.7 °F /  5.4 °C 24.9 °F /  -3.9 °C 29.98in /  1015.1hPa WNW 1.0mph /  1.6km/h 5.0mph /  8km/h 51% 0.00in /  0mm
00:09 41.8 °F /  5.4 °C 24.5 °F /  -4.2 °C 29.98in /  1015.1hPa NW 2.0mph /  3.2km/h 5.0mph /  8km/h 50% 0.00in /  0mm
00:14 41.6 °F /  5.3 °C 25.3 °F /  -3.7 °C 29.98in /  1015.1hPa NW 2.0mph /  3.2km/h 5.0mph /  8km/h 52% 0.00in /  0mm
00:19 41.4 °F /  5.2 °C 25.1 °F /  -3.8 °C 29.98in /  1015.1hPa NW 1.0mph /  1.6km/h 4.0mph /  6.4km/h 52% 0.00in /  0mm
00:24 41.2 °F /  5.1 °C 25.3 °F /  -3.7 °C 29.98in /  1015.1hPa Calm   3.0mph /  4.8km/h 53% 0.00in /  0mm
00:29 41.0 °F /  5 °C 24.7 °F /  -4.1 °C 29.98in /  1015.1hPa NW 1.0mph /  1.6km/h 3.0mph /  4.8km/h 52% 0.00in /  0mm
00:34 41.2 °F /  5.1 °C 25.3 °F /  -3.7 °C 29.98in /  1015.1hPa NW 1.0mph /  1.6km/h 4.0mph /  6.4km/h 53% 0.00in /  0mm
00:39 40.9 °F /  4.9 °C 24.6 °F /  -4.1 °C 29.98in /  1015.1hPa Calm   2.0mph /  3.2km/h 52% 0.00in /  0mm
00:44 40.9 °F /  4.9 °C 26.0 °F /  -3.3 °C 29.98in /  1015.1hPa Calm   3.0mph /  4.8km/h 55% 0.00in /  0mm
00:49 41.0 °F /  5 °C 25.2 °F /  -3.8 °C 29.99in /  1015.5hPa Calm   1.0mph /  1.6km/h 53% 0.00in /  0mm
00:54 40.9 °F /  4.9 °C 26.0 °F /  -3.3 °C 29.99in /  1015.5hPa Calm   2.0mph /  3.2km/h 55% 0.00in /  0mm
00:59 40.8 °F /  4.9 °C 25.4 °F /  -3.7 °C 29.98in /  1015.1hPa Calm   2.0mph /  3.2km/h 54% 0.00in /  0mm
01:04 40.9 °F /  4.9 °C 26.0 °F /  -3.3 °C 29.98in /  1015.1hPa NW 1.0mph /  1.6km/h 2.0mph /  3.2km/h 55% 0.00in /  0mm
01:09 40.9 °F /  4.9 °C 26.0 °F /  -3.3 °C 29.98in /  1015.1hPa Calm   2.0mph /  3.2km/h 55% 0.00in /  0mm
01:14 40.9 °F /  4.9 °C 26.4 °F /  -3.1 °C 29.98in /  1015.1hPa Calm   3.0mph /  4.8km/h 56% 0.00in /  0mm
01:19 40.8 °F /  4.9 °C 26.7 °F /  -2.9 °C 29.98in /  1015.1hPa Calm     57% 0.00in /  0mm
01:24 40.9 °F /  4.9 °C 26.4 °F /  -3.1 °C 29.97in /  1014.8hPa Calm   2.0mph /  3.2km/h 56% 0.00in /  0mm
01:29 41.0 °F /  5 °C 26.1 °F /  -3.3 °C 29.97in /  1014.8hPa NW 1.0mph /  1.6km/h 3.0mph /  4.8km/h 55% 0.00in /  0mm
01:34 40.7 °F /  4.8 °C 26.6 °F /  -3 °C 29.97in /  1014.8hPa NW 1.0mph /  1.6km/h 3.0mph /  4.8km/h 57% 0.00in /  0mm
01:39 40.2 °F /  4.6 °C 26.6 °F /  -3 °C 29.97in /  1014.8hPa NW 1.0mph /  1.6km/h 2.0mph /  3.2km/h 58% 0.00in /  0mm
01:44 40.1 °F /  4.5 °C 26.5 °F /  -3.1 °C 29.97in /  1014.8hPa Calm   2.0mph /  3.2km/h 58% 0.00in /  0mm
01:49 40.0 °F /  4.4 °C 26.4 °F /  -3.1 °C 29.97in /  1014.8hPa Calm   1.0mph /  1.6km/h 58% 0.00in /  0mm
01:54 40.0 °F /  4.4 °C 26.0 °F /  -3.3 °C 29.97in /  1014.8hPa NNW 2.0mph /  3.2km/h 4.0mph /  6.4km/h 57% 0.00in /  0mm
01:59 39.8 °F /  4.3 °C 26.2 °F /  -3.2 °C 29.97in /  1014.8hPa Calm   4.0mph /  6.4km/h 58% 0.00in /  0mm
02:04 39.2 °F /  4 °C 26.5 °F /  -3.1 °C 29.97in /  1014.8hPa North 1.0mph /  1.6km/h 4.0mph /  6.4km/h 60% 0.00in /  0mm
02:09 38.7 °F /  3.7 °C 26.0 °F /  -3.3 °C 29.97in /  1014.8hPa North 1.0mph /  1.6km/h 2.0mph /  3.2km/h 60% 0.00in /  0mm
02:14 38.5 °F /  3.6 °C 26.2 °F /  -3.2 °C 29.97in /  1014.8hPa Calm     61% 0.00in /  0mm
02:19 38.0 °F /  3.3 °C 26.1 °F /  -3.3 °C 29.97in /  1014.8hPa Calm     62% 0.00in /  0mm
02:24 37.7 °F /  3.2 °C 26.2 °F /  -3.2 °C 29.97in /  1014.8hPa Calm     63% 0.00in /  0mm
02:29 37.1 °F /  2.8 °C 26.0 °F /  -3.3 °C 29.97in /  1014.8hPa Calm     64% 0.00in /  0mm
02:34 36.7 °F /  2.6 °C 26.4 °F /  -3.1 °C 29.97in /  1014.8hPa Calm     66% 0.00in /  0mm
02:39 36.4 °F /  2.4 °C 26.8 °F /  -2.9 °C 29.97in /  1014.8hPa Calm     68% 0.00in /  0mm
02:44 36.0 °F /  2.2 °C 26.5 °F /  -3.1 °C 29.97in /  1014.8hPa Calm     68% 0.00in /  0mm
02:49 35.6 °F /  2 °C 26.4 °F /  -3.1 °C 29.97in /  1014.8hPa Calm     69% 0.00in /  0mm
02:54 35.4 °F /  1.9 °C 26.6 °F /  -3 °C 29.97in /  1014.8hPa Calm     70% 0.00in /  0mm
02:59 35.1 °F /  1.7 °C 26.6 °F /  -3 °C 29.97in /  1014.8hPa Calm     71% 0.00in /  0mm
03:04 34.8 °F /  1.6 °C 27.0 °F /  -2.8 °C 29.97in /  1014.8hPa Calm     73% 0.00in /  0mm
03:09 34.7 °F /  1.5 °C 27.3 °F /  -2.6 °C 29.96in /  1014.4hPa Calm     74% 0.00in /  0mm
03:14 34.7 °F /  1.5 °C 27.3 °F /  -2.6 °C 29.96in /  1014.4hPa Calm     74% 0.00in /  0mm
03:19 34.6 °F /  1.4 °C 27.2 °F /  -2.7 °C 29.97in /  1014.8hPa Calm     74% 0.00in /  0mm
03:24 34.7 °F /  1.5 °C 27.6 °F /  -2.4 °C 29.97in /  1014.8hPa Calm     75% 0.00in /  0mm
03:29 34.7 °F /  1.5 °C 27.9 °F /  -2.3 °C 29.96in /  1014.4hPa Calm     76% 0.00in /  0mm
03:34 35.0 °F /  1.7 °C 28.2 °F /  -2.1 °C 29.96in /  1014.4hPa Calm     76% 0.00in /  0mm
03:39 35.4 °F /  1.9 °C 28.6 °F /  -1.9 °C 29.96in /  1014.4hPa Calm     76% 0.00in /  0mm
03:44 35.8 °F /  2.1 °C 29.3 °F /  -1.5 °C 29.96in /  1014.4hPa Calm     77% 0.00in /  0mm
03:49 36.4 °F /  2.4 °C 29.2 °F /  -1.6 °C 29.96in /  1014.4hPa Calm     75% 0.00in /  0mm
03:54 36.8 °F /  2.7 °C 29.0 °F /  -1.7 °C 29.96in /  1014.4hPa Calm     73% 0.00in /  0mm
03:59 36.6 °F /  2.6 °C 29.1 °F /  -1.6 °C 29.96in /  1014.4hPa Calm     74% 0.00in /  0mm
04:04 36.3 °F /  2.4 °C 28.8 °F /  -1.8 °C 29.96in /  1014.4hPa Calm     74% 0.00in /  0mm
04:09 35.9 °F /  2.2 °C 28.7 °F /  -1.8 °C 29.96in /  1014.4hPa Calm     75% 0.00in /  0mm
04:14 35.8 °F /  2.1 °C 28.6 °F /  -1.9 °C 29.96in /  1014.4hPa Calm     75% 0.00in /  0mm
04:19 35.6 °F /  2 °C 28.5 °F /  -1.9 °C 29.96in /  1014.4hPa Calm     75% 0.00in /  0mm
04:24 35.5 °F /  1.9 °C 28.7 °F /  -1.8 °C 29.96in /  1014.4hPa Calm     76% 0.00in /  0mm
04:29 35.6 °F /  2 °C 29.1 °F /  -1.6 °C 29.95in /  1014.1hPa Calm     77% 0.00in /  0mm
04:34 35.3 °F /  1.8 °C 28.8 °F /  -1.8 °C 29.96in /  1014.4hPa Calm     77% 0.00in /  0mm
04:39 35.0 °F /  1.7 °C 28.8 °F /  -1.8 °C 29.96in /  1014.4hPa Calm     78% 0.00in /  0mm
04:44 34.7 °F /  1.5 °C 28.9 °F /  -1.7 °C 29.96in /  1014.4hPa Calm     79% 0.00in /  0mm
04:49 34.5 °F /  1.4 °C 28.7 °F /  -1.8 °C 29.95in /  1014.1hPa Calm     79% 0.00in /  0mm
04:54 34.3 °F /  1.3 °C 28.5 °F /  -1.9 °C 29.95in /  1014.1hPa Calm     79% 0.00in /  0mm
04:59 34.1 °F /  1.2 °C 28.6 °F /  -1.9 °C 29.96in /  1014.4hPa Calm     80% 0.00in /  0mm
05:04 34.0 °F /  1.1 °C 28.5 °F /  -1.9 °C 29.96in /  1014.4hPa Calm     80% 0.00in /  0mm
05:09 34.1 °F /  1.2 °C 28.3 °F /  -2.1 °C 29.96in /  1014.4hPa Calm   1.0mph /  1.6km/h 79% 0.00in /  0mm
05:14 34.3 °F /  1.3 °C 27.8 °F /  -2.3 °C 29.95in /  1014.1hPa Calm   2.0mph /  3.2km/h 77% 0.00in /  0mm
05:19 34.3 °F /  1.3 °C 27.8 °F /  -2.3 °C 29.95in /  1014.1hPa ENE 1.0mph /  1.6km/h 2.0mph /  3.2km/h 77% 0.00in /  0mm
05:24 34.3 °F /  1.3 °C 27.5 °F /  -2.5 °C 29.95in /  1014.1hPa Calm   4.0mph /  6.4km/h 76% 0.00in /  0mm
05:29 34.4 °F /  1.3 °C 27.3 °F /  -2.6 °C 29.96in /  1014.4hPa Calm   3.0mph /  4.8km/h 75% 0.00in /  0mm
05:34 34.3 °F /  1.3 °C 27.5 °F /  -2.5 °C 29.96in /  1014.4hPa Calm     76% 0.00in /  0mm
05:39 34.0 °F /  1.1 °C 27.2 °F /  -2.7 °C 29.96in /  1014.4hPa Calm     76% 0.00in /  0mm
05:44 33.8 °F /  1 °C 27.4 °F /  -2.6 °C 29.96in /  1014.4hPa Calm     77% 0.00in /  0mm
05:49 33.5 °F /  0.8 °C 27.4 °F /  -2.6 °C 29.96in /  1014.4hPa Calm     78% 0.00in /  0mm
05:54 33.3 °F /  0.7 °C 27.5 °F /  -2.5 °C 29.97in /  1014.8hPa Calm     79% 0.00in /  0mm
05:59 33.1 °F /  0.6 °C 27.3 °F /  -2.6 °C 29.97in /  1014.8hPa Calm     79% 0.00in /  0mm
06:04 33.2 °F /  0.7 °C 27.4 °F /  -2.6 °C 29.97in /  1014.8hPa Calm     79% 0.00in /  0mm
06:09 33.2 °F /  0.7 °C 27.4 °F /  -2.6 °C 29.97in /  1014.8hPa Calm     79% 0.00in /  0mm
06:14 33.1 °F /  0.6 °C 27.3 °F /  -2.6 °C 29.98in /  1015.1hPa Calm     79% 0.00in /  0mm
06:19 33.1 °F /  0.6 °C 27.3 °F /  -2.6 °C 29.98in /  1015.1hPa Calm     79% 0.00in /  0mm
06:24 32.8 °F /  0.4 °C 27.3 °F /  -2.6 °C 29.98in /  1015.1hPa Calm     80% 0.00in /  0mm
06:29 32.9 °F /  0.5 °C 27.7 °F /  -2.4 °C 29.99in /  1015.5hPa Calm     81% 0.00in /  0mm
06:34 33.0 °F /  0.6 °C 27.8 °F /  -2.3 °C 29.99in /  1015.5hPa Calm     81% 0.00in /  0mm
06:39 32.9 °F /  0.5 °C 27.7 °F /  -2.4 °C 29.99in /  1015.5hPa Calm     81% 0.00in /  0mm
06:44 33.1 °F /  0.6 °C 27.9 °F /  -2.3 °C 29.99in /  1015.5hPa Calm     81% 0.00in /  0mm
06:49 33.5 °F /  0.8 °C 28.3 °F /  -2.1 °C 29.99in /  1015.5hPa Calm     81% 0.00in /  0mm
06:54 33.9 °F /  1.1 °C 28.4 °F /  -2 °C 29.99in /  1015.5hPa Calm     80% 0.00in /  0mm
06:59 34.6 °F /  1.4 °C 29.1 °F /  -1.6 °C 30.00in /  1015.8hPa Calm   2.0mph /  3.2km/h 80% 0.00in /  0mm
07:04 35.1 °F /  1.7 °C 29.2 °F /  -1.6 °C 30.00in /  1015.8hPa Calm   2.0mph /  3.2km/h 79% 0.00in /  0mm
07:09 35.7 °F /  2.1 °C 29.2 °F /  -1.6 °C 30.00in /  1015.8hPa Calm   2.0mph /  3.2km/h 77% 0.00in /  0mm
07:14 36.4 °F /  2.4 °C 29.6 °F /  -1.3 °C 30.01in /  1016.1hPa Calm   3.0mph /  4.8km/h 76% 0.00in /  0mm
07:19 36.8 °F /  2.7 °C 29.6 °F /  -1.3 °C 30.01in /  1016.1hPa Calm   3.0mph /  4.8km/h 75% 0.00in /  0mm
07:24 37.3 °F /  2.9 °C 29.8 °F /  -1.2 °C 30.00in /  1015.8hPa Calm     74% 0.00in /  0mm
07:29 37.7 °F /  3.2 °C 29.8 °F /  -1.2 °C 30.00in /  1015.8hPa Calm     73% 0.00in /  0mm
07:34 38.3 °F /  3.5 °C 30.1 °F /  -1.1 °C 30.01in /  1016.1hPa Calm   2.0mph /  3.2km/h 72% 0.00in /  0mm
07:39 38.7 °F /  3.7 °C 30.4 °F /  -0.9 °C 30.01in /  1016.1hPa Calm   2.0mph /  3.2km/h 72% 0.00in /  0mm
07:44 39.3 °F /  4.1 °C 31.0 °F /  -0.6 °C 30.01in /  1016.1hPa Calm     72% 0.00in /  0mm
07:49 39.8 °F /  4.3 °C 31.5 °F /  -0.3 °C 30.01in /  1016.1hPa Calm     72% 0.00in /  0mm
07:54 40.1 °F /  4.5 °C 31.4 °F /  -0.3 °C 30.01in /  1016.1hPa Calm     71% 0.00in /  0mm
07:59 41.5 °F /  5.3 °C 32.4 °F /  0.2 °C 30.01in /  1016.1hPa Calm     70% 0.00in /  0mm
08:04 42.0 °F /  5.6 °C 32.2 °F /  0.1 °C 30.01in /  1016.1hPa NW 1.0mph /  1.6km/h 2.0mph /  3.2km/h 68% 0.00in /  0mm
08:09 42.9 °F /  6.1 °C 31.6 °F /  -0.2 °C 30.01in /  1016.1hPa NW 1.0mph /  1.6km/h 3.0mph /  4.8km/h 64% 0.00in /  0mm
08:14 42.8 °F /  6 °C 31.1 °F /  -0.5 °C 30.01in /  1016.1hPa WNW 3.0mph /  4.8km/h 4.0mph /  6.4km/h 63% 0.00in /  0mm
08:19 43.3 °F /  6.3 °C 31.1 °F /  -0.5 °C 30.01in /  1016.1hPa WNW 3.0mph /  4.8km/h 4.0mph /  6.4km/h 62% 0.00in /  0mm
08:24 43.8 °F /  6.6 °C 32.0 °F /  0 °C 30.01in /  1016.1hPa NW 3.0mph /  4.8km/h 5.0mph /  8km/h 63% 0.00in /  0mm
08:29 44.2 °F /  6.8 °C 31.2 °F /  -0.4 °C 30.02in /  1016.5hPa West 4.0mph /  6.4km/h 5.0mph /  8km/h 60% 0.00in /  0mm
08:34 44.1 °F /  6.7 °C 30.7 °F /  -0.7 °C 30.02in /  1016.5hPa WNW 1.0mph /  1.6km/h 4.0mph /  6.4km/h 59% 0.00in /  0mm
08:39 44.5 °F /  6.9 °C 31.5 °F /  -0.3 °C 30.02in /  1016.5hPa WNW 3.0mph /  4.8km/h 7.0mph /  11.3km/h 60% 0.00in /  0mm
08:44 45.0 °F /  7.2 °C 31.9 °F /  -0.1 °C 30.01in /  1016.1hPa WNW 2.0mph /  3.2km/h 7.0mph /  11.3km/h 60% 0.00in /  0mm
08:49 45.2 °F /  7.3 °C 30.9 °F /  -0.6 °C 30.02in /  1016.5hPa WNW 2.0mph /  3.2km/h 5.0mph /  8km/h 57% 0.00in /  0mm
08:54 45.6 °F /  7.6 °C 31.2 °F /  -0.4 °C 30.02in /  1016.5hPa WNW 2.0mph /  3.2km/h 5.0mph /  8km/h 57% 0.00in /  0mm
08:59 45.9 °F /  7.7 °C 31.1 °F /  -0.5 °C 30.02in /  1016.5hPa NW 4.0mph /  6.4km/h 7.0mph /  11.3km/h 56% 0.00in /  0mm
09:04 46.3 °F /  7.9 °C 32.7 °F /  0.4 °C 30.01in /  1016.1hPa WNW 4.0mph /  6.4km/h 6.0mph /  9.7km/h 59% 0.00in /  0mm
09:09 45.6 °F /  7.6 °C 30.8 °F /  -0.7 °C 30.02in /  1016.5hPa WNW 3.0mph /  4.8km/h 6.0mph /  9.7km/h 56% 0.00in /  0mm
09:14 46.4 °F /  8 °C 31.1 °F /  -0.5 °C 30.02in /  1016.5hPa West 2.0mph /  3.2km/h 4.0mph /  6.4km/h 55% 0.00in /  0mm
09:19 46.8 °F /  8.2 °C 31.0 °F /  -0.6 °C 30.02in /  1016.5hPa WNW 1.0mph /  1.6km/h 6.0mph /  9.7km/h 54% 0.00in /  0mm
09:24 47.0 °F /  8.3 °C 30.3 °F /  -0.9 °C 30.02in /  1016.5hPa West 2.0mph /  3.2km/h 8.0mph /  12.9km/h 52% 0.00in /  0mm
09:29 47.5 °F /  8.6 °C 32.6 °F /  0.3 °C 30.01in /  1016.1hPa SSW 1.0mph /  1.6km/h 4.0mph /  6.4km/h 56% 0.00in /  0mm
09:34 48.3 °F /  9.1 °C 31.5 °F /  -0.3 °C 30.01in /  1016.1hPa West 2.0mph /  3.2km/h 8.0mph /  12.9km/h 52% 0.00in /  0mm
09:39 48.3 °F /  9.1 °C 31.9 °F /  -0.1 °C 30.02in /  1016.5hPa WNW 3.0mph /  4.8km/h 8.0mph /  12.9km/h 53% 0.00in /  0mm
09:44 48.0 °F /  8.9 °C 30.2 °F /  -1 °C 30.02in /  1016.5hPa NW 3.0mph /  4.8km/h 7.0mph /  11.3km/h 50% 0.00in /  0mm
09:49 48.7 °F /  9.3 °C 31.8 °F /  -0.1 °C 30.02in /  1016.5hPa West 3.0mph /  4.8km/h 7.0mph /  11.3km/h 52% 0.00in /  0mm
09:54 48.8 °F /  9.3 °C 31.9 °F /  -0.1 °C 30.02in /  1016.5hPa WSW 3.0mph /  4.8km/h 9.0mph /  14.5km/h 52% 0.00in /  0mm
09:59 49.0 °F /  9.4 °C 30.7 °F /  -0.7 °C 30.02in /  1016.5hPa WSW 3.0mph /  4.8km/h 6.0mph /  9.7km/h 49% 0.00in /  0mm
10:04 49.1 °F /  9.5 °C 30.2 °F /  -1 °C 30.01in /  1016.1hPa West 4.0mph /  6.4km/h 9.0mph /  14.5km/h 48% 0.00in /  0mm
10:09 49.5 °F /  9.7 °C 29.6 °F /  -1.3 °C 30.01in /  1016.1hPa West 4.0mph /  6.4km/h 9.0mph /  14.5km/h 46% 0.00in /  0mm
10:14 49.7 °F /  9.8 °C 30.8 °F /  -0.7 °C 30.02in /  1016.5hPa West 4.0mph /  6.4km/h 9.0mph /  14.5km/h 48% 0.00in /  0mm
10:19 49.4 °F /  9.7 °C 30.0 °F /  -1.1 °C 30.01in /  1016.1hPa WSW 4.0mph /  6.4km/h 9.0mph /  14.5km/h 47% 0.00in /  0mm
10:24 49.8 °F /  9.9 °C 31.4 °F /  -0.3 °C 30.02in /  1016.5hPa WSW 3.0mph /  4.8km/h 7.0mph /  11.3km/h 49% 0.00in /  0mm
10:29 49.9 °F /  9.9 °C 30.5 °F /  -0.8 °C 30.01in /  1016.1hPa West 4.0mph /  6.4km/h 7.0mph /  11.3km/h 47% 0.00in /  0mm
10:34 50.1 °F /  10.1 °C 29.6 °F /  -1.3 °C 30.02in /  1016.5hPa WSW 3.0mph /  4.8km/h 7.0mph /  11.3km/h 45% 0.00in /  0mm
10:39 49.4 °F /  9.7 °C 28.9 °F /  -1.7 °C 30.02in /  1016.5hPa WSW 4.0mph /  6.4km/h 9.0mph /  14.5km/h 45% 0.00in /  0mm
10:44 50.0 °F /  10 °C 30.5 °F /  -0.8 °C 30.02in /  1016.5hPa West 3.0mph /  4.8km/h 11.0mph /  17.7km/h 47% 0.00in /  0mm
10:49 49.4 °F /  9.7 °C 31.0 °F /  -0.6 °C 30.02in /  1016.5hPa WSW 6.0mph /  9.7km/h 8.0mph /  12.9km/h 49% 0.00in /  0mm
10:54 49.7 °F /  9.8 °C 30.3 °F /  -0.9 °C 30.02in /  1016.5hPa WNW 4.0mph /  6.4km/h 11.0mph /  17.7km/h 47% 0.00in /  0mm
10:59 49.9 °F /  9.9 °C 33.0 °F /  0.6 °C 30.02in /  1016.5hPa SSW 2.0mph /  3.2km/h 7.0mph /  11.3km/h 52% 0.00in /  0mm
11:04 50.9 °F /  10.5 °C 31.9 °F /  -0.1 °C 30.02in /  1016.5hPa WSW 3.0mph /  4.8km/h 8.0mph /  12.9km/h 48% 0.00in /  0mm
11:09 51.2 °F /  10.7 °C 32.7 °F /  0.4 °C 30.02in /  1016.5hPa West 4.0mph /  6.4km/h 8.0mph /  12.9km/h 49% 0.00in /  0mm
11:14 51.6 °F /  10.9 °C 33.6 °F /  0.9 °C 30.02in /  1016.5hPa West 4.0mph /  6.4km/h 8.0mph /  12.9km/h 50% 0.00in /  0mm
11:19 51.3 °F /  10.7 °C 34.3 °F /  1.3 °C 30.02in /  1016.5hPa WSW 4.0mph /  6.4km/h 8.0mph /  12.9km/h 52% 0.00in /  0mm
11:24 51.3 °F /  10.7 °C 34.3 °F /  1.3 °C 30.02in /  1016.5hPa WSW 5.0mph /  8km/h 10.0mph /  16.1km/h 52% 0.00in /  0mm
11:29 50.9 °F /  10.5 °C 33.9 °F /  1.1 °C 30.02in /  1016.5hPa WSW 4.0mph /  6.4km/h 10.0mph /  16.1km/h 52% 0.00in /  0mm
11:34 50.5 °F /  10.3 °C 32.0 °F /  0 °C 30.02in /  1016.5hPa SW 5.0mph /  8km/h 10.0mph /  16.1km/h 49% 0.00in /  0mm
11:39 50.8 °F /  10.4 °C 33.3 °F /  0.7 °C 30.02in /  1016.5hPa West 4.0mph /  6.4km/h 8.0mph /  12.9km/h 51% 0.00in /  0mm
11:44 51.0 °F /  10.6 °C 32.5 °F /  0.3 °C 30.02in /  1016.5hPa South 10.0mph /  16.1km/h 11.0mph /  17.7km/h 49% 0.00in /  0mm
11:49 50.3 °F /  10.2 °C 29.7 °F /  -1.3 °C 30.02in /  1016.5hPa WSW 2.0mph /  3.2km/h 10.0mph /  16.1km/h 45% 0.00in /  0mm
11:54 51.8 °F /  11 °C 33.2 °F /  0.7 °C 30.02in /  1016.5hPa South 4.0mph /  6.4km/h 10.0mph /  16.1km/h 49% 0.00in /  0mm
11:59 52.3 °F /  11.3 °C 32.6 °F /  0.3 °C 30.02in /  1016.5hPa WSW 2.0mph /  3.2km/h 8.0mph /  12.9km/h 47% 0.00in /  0mm
12:04 51.9 °F /  11.1 °C 31.7 °F /  -0.2 °C 30.02in /  1016.5hPa SW 4.0mph /  6.4km/h 10.0mph /  16.1km/h 46% 0.00in /  0mm
12:09 51.7 °F /  10.9 °C 29.9 °F /  -1.2 °C 30.02in /  1016.5hPa SW 5.0mph /  8km/h 11.0mph /  17.7km/h 43% 0.00in /  0mm
12:14 51.9 °F /  11.1 °C 29.5 °F /  -1.4 °C 30.02in /  1016.5hPa SW 5.0mph /  8km/h 11.0mph /  17.7km/h 42% 0.00in /  0mm
12:19 52.4 °F /  11.3 °C 33.8 °F /  1 °C 30.01in /  1016.1hPa WSW 5.0mph /  8km/h 9.0mph /  14.5km/h 49% 0.00in /  0mm
12:24 52.4 °F /  11.3 °C 32.7 °F /  0.4 °C 30.01in /  1016.1hPa SSW 4.0mph /  6.4km/h 9.0mph /  14.5km/h 47% 0.00in /  0mm
12:29 51.8 °F /  11 °C 28.8 °F /  -1.8 °C 30.01in /  1016.1hPa South 4.0mph /  6.4km/h 10.0mph /  16.1km/h 41% 0.00in /  0mm
12:34 52.1 °F /  11.2 °C 30.8 °F /  -0.7 °C 30.01in /  1016.1hPa SW 5.0mph /  8km/h 10.0mph /  16.1km/h 44% 0.00in /  0mm
12:39 52.4 °F /  11.3 °C 30.5 °F /  -0.8 °C 30.01in /  1016.1hPa WSW 5.0mph /  8km/h 9.0mph /  14.5km/h 43% 0.00in /  0mm
12:44 52.8 °F /  11.6 °C 32.0 °F /  0 °C 30.01in /  1016.1hPa WSW 5.0mph /  8km/h 11.0mph /  17.7km/h 45% 0.00in /  0mm
12:49 53.1 °F /  11.7 °C 34.9 °F /  1.6 °C 30.00in /  1015.8hPa NW 2.0mph /  3.2km/h 8.0mph /  12.9km/h 50% 0.00in /  0mm
12:54 52.7 °F /  11.5 °C 32.5 °F /  0.3 °C 30.01in /  1016.1hPa WSW 5.0mph /  8km/h 9.0mph /  14.5km/h 46% 0.00in /  0mm
12:59 52.9 °F /  11.6 °C 30.4 °F /  -0.9 °C 30.01in /  1016.1hPa West 8.0mph /  12.9km/h 8.0mph /  12.9km/h 42% 0.00in /  0mm
13:04 53.2 °F /  11.8 °C 31.8 °F /  -0.1 °C 30.00in /  1015.8hPa WSW 5.0mph /  8km/h 8.0mph /  12.9km/h 44% 0.00in /  0mm
13:09 52.8 °F /  11.6 °C 32.6 °F /  0.3 °C 30.01in /  1016.1hPa WSW 4.0mph /  6.4km/h 9.0mph /  14.5km/h 46% 0.00in /  0mm
13:14 52.7 °F /  11.5 °C 29.6 °F /  -1.3 °C 30.01in /  1016.1hPa WSW 5.0mph /  8km/h 9.0mph /  14.5km/h 41% 0.00in /  0mm
13:19 52.8 °F /  11.6 °C 30.9 °F /  -0.6 °C 30.01in /  1016.1hPa SSW 5.0mph /  8km/h 10.0mph /  16.1km/h 43% 0.00in /  0mm
13:24 54.0 °F /  12.2 °C 31.4 °F /  -0.3 °C 30.01in /  1016.1hPa SSW 6.0mph /  9.7km/h 9.0mph /  14.5km/h 42% 0.00in /  0mm
13:29 54.0 °F /  12.2 °C 32.0 °F /  0 °C 30.01in /  1016.1hPa WSW 5.0mph /  8km/h 10.0mph /  16.1km/h 43% 0.00in /  0mm
13:34 54.2 °F /  12.3 °C 33.3 °F /  0.7 °C 30.01in /  1016.1hPa West 5.0mph /  8km/h 11.0mph /  17.7km/h 45% 0.00in /  0mm
13:39 53.5 °F /  11.9 °C 32.7 °F /  0.4 °C 30.01in /  1016.1hPa WSW 6.0mph /  9.7km/h 12.0mph /  19.3km/h 45% 0.00in /  0mm
13:44 52.8 °F /  11.6 °C 30.3 °F /  -0.9 °C 30.01in /  1016.1hPa SW 6.0mph /  9.7km/h 12.0mph /  19.3km/h 42% 0.00in /  0mm
13:49 53.1 °F /  11.7 °C 33.4 °F /  0.8 °C 30.01in /  1016.1hPa WSW 6.0mph /  9.7km/h 11.0mph /  17.7km/h 47% 0.00in /  0mm
13:54 54.2 °F /  12.3 °C 32.2 °F /  0.1 °C 30.01in /  1016.1hPa WSW 6.0mph /  9.7km/h 13.0mph /  20.9km/h 43% 0.00in /  0mm
13:59 53.9 °F /  12.2 °C 32.5 °F /  0.3 °C 30.01in /  1016.1hPa WSW 4.0mph /  6.4km/h 11.0mph /  17.7km/h 44% 0.00in /  0mm
14:04 54.5 °F /  12.5 °C 31.9 °F /  -0.1 °C 30.01in /  1016.1hPa WSW 5.0mph /  8km/h 11.0mph /  17.7km/h 42% 0.00in /  0mm
14:09 54.1 °F /  12.3 °C 31.5 °F /  -0.3 °C 30.01in /  1016.1hPa WSW 10.0mph /  16.1km/h 10.0mph /  16.1km/h 42% 0.00in /  0mm
14:14 53.8 °F /  12.1 °C 32.4 °F /  0.2 °C 30.01in /  1016.1hPa SW 2.0mph /  3.2km/h 11.0mph /  17.7km/h 44% 0.00in /  0mm
14:19 53.9 °F /  12.2 °C 30.1 °F /  -1.1 °C 30.01in /  1016.1hPa SSW 7.0mph /  11.3km/h 10.0mph /  16.1km/h 40% 0.00in /  0mm
14:24 54.6 °F /  12.6 °C 33.1 °F /  0.6 °C 30.01in /  1016.1hPa West 2.0mph /  3.2km/h 9.0mph /  14.5km/h 44% 0.00in /  0mm
14:29 54.4 °F /  12.4 °C 31.8 °F /  -0.1 °C 30.00in /  1015.8hPa South 7.0mph /  11.3km/h 10.0mph /  16.1km/h 42% 0.00in /  0mm
14:34 54.9 °F /  12.7 °C 32.2 °F /  0.1 °C 30.01in /  1016.1hPa WSW 6.0mph /  9.7km/h 10.0mph /  16.1km/h 42% 0.00in /  0mm
14:39 55.6 °F /  13.1 °C 33.4 °F /  0.8 °C 30.00in /  1015.8hPa SW 5.0mph /  8km/h 8.0mph /  12.9km/h 43% 0.00in /  0mm
14:44 54.1 °F /  12.3 °C 30.9 °F /  -0.6 °C 30.00in /  1015.8hPa SW 6.0mph /  9.7km/h 11.0mph /  17.7km/h 41% 0.00in /  0mm
14:49 54.5 °F /  12.5 °C 33.0 °F /  0.6 °C 30.00in /  1015.8hPa SSW 7.0mph /  11.3km/h 14.0mph /  22.5km/h 44% 0.00in /  0mm
14:54 54.8 °F /  12.7 °C 32.1 °F /  0.1 °C 30.00in /  1015.8hPa WSW 6.0mph /  9.7km/h 11.0mph /  17.7km/h 42% 0.00in /  0mm
14:59 54.1 °F /  12.3 °C 32.1 °F /  0.1 °C 30.01in /  1016.1hPa West 5.0mph /  8km/h 11.0mph /  17.7km/h 43% 0.00in /  0mm
15:04 53.0 °F /  11.7 °C 32.8 °F /  0.4 °C 30.01in /  1016.1hPa WSW 5.0mph /  8km/h 11.0mph /  17.7km/h 46% 0.00in /  0mm
15:09 53.0 °F /  11.7 °C 31.1 °F /  -0.5 °C 30.01in /  1016.1hPa WSW 5.0mph /  8km/h 11.0mph /  17.7km/h 43% 0.00in /  0mm
15:14 53.4 °F /  11.9 °C 31.4 °F /  -0.3 °C 30.01in /  1016.1hPa WSW 5.0mph /  8km/h 11.0mph /  17.7km/h 43% 0.00in /  0mm
15:19 53.9 °F /  12.2 °C 31.3 °F /  -0.4 °C 30.01in /  1016.1hPa SW 5.0mph /  8km/h 10.0mph /  16.1km/h 42% 0.00in /  0mm
15:24 55.0 °F /  12.8 °C 36.7 °F /  2.6 °C 30.01in /  1016.1hPa WSW 4.0mph /  6.4km/h 8.0mph /  12.9km/h 50% 0.00in /  0mm
15:29 54.6 °F /  12.6 °C 33.1 °F /  0.6 °C 30.00in /  1015.8hPa WSW 4.0mph /  6.4km/h 9.0mph /  14.5km/h 44% 0.00in /  0mm
15:34 54.8 °F /  12.7 °C 35.5 °F /  1.9 °C 30.00in /  1015.8hPa West 4.0mph /  6.4km/h 8.0mph /  12.9km/h 48% 0.00in /  0mm
15:39 53.9 °F /  12.2 °C 30.7 °F /  -0.7 °C 30.00in /  1015.8hPa SW 1.0mph /  1.6km/h 7.0mph /  11.3km/h 41% 0.00in /  0mm
15:44 54.3 °F /  12.4 °C 32.8 °F /  0.4 °C 30.00in /  1015.8hPa WSW 4.0mph /  6.4km/h 9.0mph /  14.5km/h 44% 0.00in /  0mm
15:49 54.0 °F /  12.2 °C 32.0 °F /  0 °C 30.00in /  1015.8hPa WSW 4.0mph /  6.4km/h 7.0mph /  11.3km/h 43% 0.00in /  0mm
15:54 54.1 °F /  12.3 °C 32.1 °F /  0.1 °C 30.00in /  1015.8hPa SW 3.0mph /  4.8km/h 8.0mph /  12.9km/h 43% 0.00in /  0mm
15:59 54.2 °F /  12.3 °C 32.7 °F /  0.4 °C 30.00in /  1015.8hPa WSW 4.0mph /  6.4km/h 8.0mph /  12.9km/h 44% 0.00in /  0mm
16:04 54.2 °F /  12.3 °C 32.2 °F /  0.1 °C 30.00in /  1015.8hPa WSW 4.0mph /  6.4km/h 8.0mph /  12.9km/h 43% 0.00in /  0mm
16:09 54.1 °F /  12.3 °C 33.8 °F /  1 °C 30.00in /  1015.8hPa SW 4.0mph /  6.4km/h 8.0mph /  12.9km/h 46% 0.00in /  0mm
16:14 54.7 °F /  12.6 °C 33.2 °F /  0.7 °C 30.00in /  1015.8hPa SW 3.0mph /  4.8km/h 8.0mph /  12.9km/h 44% 0.00in /  0mm
16:19 54.7 °F /  12.6 °C 32.6 °F /  0.3 °C 30.00in /  1015.8hPa SW 3.0mph /  4.8km/h 7.0mph /  11.3km/h 43% 0.00in /  0mm
16:24 54.6 °F /  12.6 °C 33.1 °F /  0.6 °C 30.00in /  1015.8hPa WSW 4.0mph /  6.4km/h 8.0mph /  12.9km/h 44% 0.00in /  0mm
16:29 53.9 °F /  12.2 °C 32.5 °F /  0.3 °C 30.00in /  1015.8hPa SW 3.0mph /  4.8km/h 8.0mph /  12.9km/h 44% 0.00in /  0mm
16:34 54.2 °F /  12.3 °C 33.3 °F /  0.7 °C 30.00in /  1015.8hPa WSW 3.0mph /  4.8km/h 7.0mph /  11.3km/h 45% 0.00in /  0mm
16:39 54.4 °F /  12.4 °C 32.3 °F /  0.2 °C 29.99in /  1015.5hPa SSW 1.0mph /  1.6km/h 4.0mph /  6.4km/h 43% 0.00in /  0mm
16:44 54.5 °F /  12.5 °C 30.6 °F /  -0.8 °C 29.99in /  1015.5hPa South 3.0mph /  4.8km/h 5.0mph /  8km/h 40% 0.00in /  0mm
16:49 55.1 °F /  12.8 °C 34.7 °F /  1.5 °C 30.00in /  1015.8hPa WSW 2.0mph /  3.2km/h 5.0mph /  8km/h 46% 0.00in /  0mm
16:54 55.1 °F /  12.8 °C 33.0 °F /  0.6 °C 30.00in /  1015.8hPa SSW 1.0mph /  1.6km/h 5.0mph /  8km/h 43% 0.00in /  0mm
16:59 55.5 °F /  13.1 °C 31.5 °F /  -0.3 °C 30.00in /  1015.8hPa WSW 2.0mph /  3.2km/h 6.0mph /  9.7km/h 40% 0.00in /  0mm
17:04 55.2 °F /  12.9 °C 32.5 °F /  0.3 °C 30.00in /  1015.8hPa WNW 2.0mph /  3.2km/h 6.0mph /  9.7km/h 42% 0.00in /  0mm
17:09 54.6 °F /  12.6 °C 32.5 °F /  0.3 °C 30.00in /  1015.8hPa WNW 1.0mph /  1.6km/h 4.0mph /  6.4km/h 43% 0.00in /  0mm
17:14 55.2 °F /  12.9 °C 31.3 °F /  -0.4 °C 30.00in /  1015.8hPa WNW 2.0mph /  3.2km/h 5.0mph /  8km/h 40% 0.00in /  0mm
17:19 54.6 °F /  12.6 °C 31.3 °F /  -0.4 °C 30.00in /  1015.8hPa West 2.0mph /  3.2km/h 6.0mph /  9.7km/h 41% 0.00in /  0mm
17:24 54.6 °F /  12.6 °C 30.7 °F /  -0.7 °C 30.00in /  1015.8hPa WSW 2.0mph /  3.2km/h 4.0mph /  6.4km/h 40% 0.00in /  0mm
17:29 54.2 °F /  12.3 °C 32.2 °F /  0.1 °C 30.00in /  1015.8hPa WSW 2.0mph /  3.2km/h 6.0mph /  9.7km/h 43% 0.00in /  0mm
17:34 54.2 °F /  12.3 °C 31.6 °F /  -0.2 °C 30.00in /  1015.8hPa SW 3.0mph /  4.8km/h 5.0mph /  8km/h 42% 0.00in /  0mm
17:39 54.3 °F /  12.4 °C 29.8 °F /  -1.2 °C 30.00in /  1015.8hPa Calm   3.0mph /  4.8km/h 39% 0.00in /  0mm
17:44 54.4 °F /  12.4 °C 29.3 °F /  -1.5 °C 30.00in /  1015.8hPa ENE 2.0mph /  3.2km/h 7.0mph /  11.3km/h 38% 0.00in /  0mm
17:49 54.2 °F /  12.3 °C 30.4 °F /  -0.9 °C 30.00in /  1015.8hPa NE 2.0mph /  3.2km/h 4.0mph /  6.4km/h 40% 0.00in /  0mm
17:54 54.5 °F /  12.5 °C 30.6 °F /  -0.8 °C 30.00in /  1015.8hPa NNW 3.0mph /  4.8km/h 5.0mph /  8km/h 40% 0.00in /  0mm
17:59 54.2 °F /  12.3 °C 28.5 °F /  -1.9 °C 30.00in /  1015.8hPa North 3.0mph /  4.8km/h 6.0mph /  9.7km/h 37% 0.00in /  0mm
18:04 53.9 °F /  12.2 °C 30.7 °F /  -0.7 °C 30.00in /  1015.8hPa NNW 2.0mph /  3.2km/h 6.0mph /  9.7km/h 41% 0.00in /  0mm
18:09 53.5 °F /  11.9 °C 29.7 °F /  -1.3 °C 30.01in /  1016.1hPa NNW 1.0mph /  1.6km/h 4.0mph /  6.4km/h 40% 0.00in /  0mm
18:14 53.2 °F /  11.8 °C 28.9 °F /  -1.7 °C 30.00in /  1015.8hPa Calm   3.0mph /  4.8km/h 39% 0.00in /  0mm
18:19 53.5 °F /  11.9 °C 31.0 °F /  -0.6 °C 30.00in /  1015.8hPa NE 2.0mph /  3.2km/h 5.0mph /  8km/h 42% 0.00in /  0mm
18:24 53.6 °F /  12 °C 31.6 °F /  -0.2 °C 30.00in /  1015.8hPa ENE 2.0mph /  3.2km/h 4.0mph /  6.4km/h 43% 0.00in /  0mm
18:29 53.4 °F /  11.9 °C 29.7 °F /  -1.3 °C 30.00in /  1015.8hPa ENE 2.0mph /  3.2km/h 4.0mph /  6.4km/h 40% 0.00in /  0mm
18:34 53.2 °F /  11.8 °C 32.4 °F /  0.2 °C 30.00in /  1015.8hPa ENE 2.0mph /  3.2km/h 7.0mph /  11.3km/h 45% 0.00in /  0mm
18:39 53.0 °F /  11.7 °C 31.6 °F /  -0.2 °C 30.00in /  1015.8hPa NE 3.0mph /  4.8km/h 7.0mph /  11.3km/h 44% 0.00in /  0mm
18:44 52.8 °F /  11.6 °C 32.0 °F /  0 °C 30.00in /  1015.8hPa NE 2.0mph /  3.2km/h 8.0mph /  12.9km/h 45% 0.00in /  0mm
18:49 52.4 °F /  11.3 °C 32.2 °F /  0.1 °C 30.00in /  1015.8hPa NNE 2.0mph /  3.2km/h 7.0mph /  11.3km/h 46% 0.00in /  0mm
18:54 52.3 °F /  11.3 °C 31.6 °F /  -0.2 °C 30.01in /  1016.1hPa ENE 4.0mph /  6.4km/h 7.0mph /  11.3km/h 45% 0.00in /  0mm
18:59 52.3 °F /  11.3 °C 31.6 °F /  -0.2 °C 30.01in /  1016.1hPa NE 3.0mph /  4.8km/h 7.0mph /  11.3km/h 45% 0.00in /  0mm
19:04 52.3 °F /  11.3 °C 31.6 °F /  -0.2 °C 30.01in /  1016.1hPa NE 2.0mph /  3.2km/h 5.0mph /  8km/h 45% 0.00in /  0mm
19:09 52.3 °F /  11.3 °C 31.6 °F /  -0.2 °C 30.01in /  1016.1hPa NE 2.0mph /  3.2km/h 6.0mph /  9.7km/h 45% 0.00in /  0mm
19:14 52.0 °F /  11.1 °C 31.3 °F /  -0.4 °C 30.02in /  1016.5hPa NE 3.0mph /  4.8km/h 4.0mph /  6.4km/h 45% 0.00in /  0mm
19:19 51.9 °F /  11.1 °C 31.7 °F /  -0.2 °C 30.02in /  1016.5hPa NE 2.0mph /  3.2km/h 4.0mph /  6.4km/h 46% 0.00in /  0mm
19:24 51.9 °F /  11.1 °C 32.3 °F /  0.2 °C 30.01in /  1016.1hPa NE 2.0mph /  3.2km/h 6.0mph /  9.7km/h 47% 0.00in /  0mm
19:29 51.7 °F /  10.9 °C 32.1 °F /  0.1 °C 30.02in /  1016.5hPa NE 2.0mph /  3.2km/h 6.0mph /  9.7km/h 47% 0.00in /  0mm
19:34 51.6 °F /  10.9 °C 32.5 °F /  0.3 °C 30.02in /  1016.5hPa NE 2.0mph /  3.2km/h 5.0mph /  8km/h 48% 0.00in /  0mm
19:39 51.6 °F /  10.9 °C 32.0 °F /  0 °C 30.02in /  1016.5hPa NE 3.0mph /  4.8km/h 7.0mph /  11.3km/h 47% 0.00in /  0mm
19:44 51.5 °F /  10.8 °C 32.4 °F /  0.2 °C 30.02in /  1016.5hPa NNE 2.0mph /  3.2km/h 7.0mph /  11.3km/h 48% 0.00in /  0mm
19:49 51.5 °F /  10.8 °C 31.9 °F /  -0.1 °C 30.02in /  1016.5hPa NE 4.0mph /  6.4km/h 8.0mph /  12.9km/h 47% 0.00in /  0mm
19:54 51.4 °F /  10.8 °C 32.9 °F /  0.5 °C 30.02in /  1016.5hPa NE 3.0mph /  4.8km/h 8.0mph /  12.9km/h 49% 0.00in /  0mm
19:59 51.3 °F /  10.7 °C 32.8 °F /  0.4 °C 30.02in /  1016.5hPa NE 4.0mph /  6.4km/h 9.0mph /  14.5km/h 49% 0.00in /  0mm
20:04 51.1 °F /  10.6 °C 33.1 °F /  0.6 °C 30.02in /  1016.5hPa ESE 7.0mph /  11.3km/h 9.0mph /  14.5km/h 50% 0.00in /  0mm
20:09 50.9 °F /  10.5 °C 33.4 °F /  0.8 °C 30.02in /  1016.5hPa ENE 3.0mph /  4.8km/h 8.0mph /  12.9km/h 51% 0.00in /  0mm
20:14 50.8 °F /  10.4 °C 33.8 °F /  1 °C 30.02in /  1016.5hPa NE 4.0mph /  6.4km/h 10.0mph /  16.1km/h 52% 0.00in /  0mm
20:19 50.6 °F /  10.3 °C 34.1 °F /  1.2 °C 30.02in /  1016.5hPa NE 4.0mph /  6.4km/h 9.0mph /  14.5km/h 53% 0.00in /  0mm
20:24 50.4 °F /  10.2 °C 33.9 °F /  1.1 °C 30.02in /  1016.5hPa NE 5.0mph /  8km/h 10.0mph /  16.1km/h 53% 0.00in /  0mm
20:29 50.2 °F /  10.1 °C 34.2 °F /  1.2 °C 30.01in /  1016.1hPa ENE 5.0mph /  8km/h 10.0mph /  16.1km/h 54% 0.00in /  0mm
20:34 50.1 °F /  10.1 °C 34.5 °F /  1.4 °C 30.01in /  1016.1hPa ENE 5.0mph /  8km/h 9.0mph /  14.5km/h 55% 0.00in /  0mm
20:39 49.9 °F /  9.9 °C 34.8 °F /  1.6 °C 30.01in /  1016.1hPa ENE 5.0mph /  8km/h 11.0mph /  17.7km/h 56% 0.00in /  0mm
20:44 49.7 °F /  9.8 °C 35.1 °F /  1.7 °C 30.01in /  1016.1hPa NE 8.0mph /  12.9km/h 10.0mph /  16.1km/h 57% 0.00in /  0mm
20:49 49.5 °F /  9.7 °C 35.3 °F /  1.8 °C 30.02in /  1016.5hPa NE 4.0mph /  6.4km/h 11.0mph /  17.7km/h 58% 0.00in /  0mm
20:54 49.3 °F /  9.6 °C 35.1 °F /  1.7 °C 30.01in /  1016.1hPa NE 6.0mph /  9.7km/h 12.0mph /  19.3km/h 58% 0.00in /  0mm
20:59 49.1 °F /  9.5 °C 34.9 °F /  1.6 °C 30.02in /  1016.5hPa NE 6.0mph /  9.7km/h 12.0mph /  19.3km/h 58% 0.00in /  0mm
21:04 48.9 °F /  9.4 °C 35.2 °F /  1.8 °C 30.02in /  1016.5hPa NE 6.0mph /  9.7km/h 10.0mph /  16.1km/h 59% 0.00in /  0mm
21:09 48.7 °F /  9.3 °C 35.0 °F /  1.7 °C 30.02in /  1016.5hPa NE 5.0mph /  8km/h 13.0mph /  20.9km/h 59% 0.00in /  0mm
21:14 48.6 °F /  9.2 °C 34.9 °F /  1.6 °C 30.02in /  1016.5hPa East 10.0mph /  16.1km/h 11.0mph /  17.7km/h 59% 0.00in /  0mm
21:19 48.6 °F /  9.2 °C 34.9 °F /  1.6 °C 30.03in /  1016.8hPa NE 6.0mph /  9.7km/h 9.0mph /  14.5km/h 59% 0.00in /  0mm
21:24 48.3 °F /  9.1 °C 34.2 °F /  1.2 °C 30.03in /  1016.8hPa NE 5.0mph /  8km/h 12.0mph /  19.3km/h 58% 0.00in /  0mm
21:29 48.3 °F /  9.1 °C 34.2 °F /  1.2 °C 30.03in /  1016.8hPa NE 6.0mph /  9.7km/h 12.0mph /  19.3km/h 58% 0.00in /  0mm
21:34 48.1 °F /  8.9 °C 34.0 °F /  1.1 °C 30.03in /  1016.8hPa NE 5.0mph /  8km/h 11.0mph /  17.7km/h 58% 0.00in /  0mm
21:39 48.1 °F /  8.9 °C 34.0 °F /  1.1 °C 30.03in /  1016.8hPa NE 5.0mph /  8km/h 9.0mph /  14.5km/h 58% 0.00in /  0mm
21:44 48.0 °F /  8.9 °C 33.9 °F /  1.1 °C 30.02in /  1016.5hPa ENE 5.0mph /  8km/h 10.0mph /  16.1km/h 58% 0.00in /  0mm
21:49 47.9 °F /  8.8 °C 33.8 °F /  1 °C 30.02in /  1016.5hPa NE 4.0mph /  6.4km/h 9.0mph /  14.5km/h 58% 0.00in /  0mm
21:54 47.9 °F /  8.8 °C 34.3 °F /  1.3 °C 30.02in /  1016.5hPa ENE 4.0mph /  6.4km/h 6.0mph /  9.7km/h 59% 0.00in /  0mm
21:59 47.8 °F /  8.8 °C 34.2 °F /  1.2 °C 30.02in /  1016.5hPa ENE 4.0mph /  6.4km/h 8.0mph /  12.9km/h 59% 0.00in /  0mm
22:04 47.8 °F /  8.8 °C 34.2 °F /  1.2 °C 30.02in /  1016.5hPa East 5.0mph /  8km/h 8.0mph /  12.9km/h 59% 0.00in /  0mm
22:09 47.6 °F /  8.7 °C 34.4 °F /  1.3 °C 30.02in /  1016.5hPa ENE 4.0mph /  6.4km/h 8.0mph /  12.9km/h 60% 0.00in /  0mm
22:14 47.6 °F /  8.7 °C 34.4 °F /  1.3 °C 30.02in /  1016.5hPa SE 2.0mph /  3.2km/h 8.0mph /  12.9km/h 60% 0.00in /  0mm
22:19 47.6 °F /  8.7 °C 34.4 °F /  1.3 °C 30.02in /  1016.5hPa East 1.0mph /  1.6km/h 5.0mph /  8km/h 60% 0.00in /  0mm
22:24 47.6 °F /  8.7 °C 34.4 °F /  1.3 °C 30.02in /  1016.5hPa ENE 3.0mph /  4.8km/h 6.0mph /  9.7km/h 60% 0.00in /  0mm
22:29 47.5 °F /  8.6 °C 34.7 °F /  1.5 °C 30.03in /  1016.8hPa ENE 2.0mph /  3.2km/h 6.0mph /  9.7km/h 61% 0.00in /  0mm
22:34 47.5 °F /  8.6 °C 34.7 °F /  1.5 °C 30.03in /  1016.8hPa East 2.0mph /  3.2km/h 6.0mph /  9.7km/h 61% 0.00in /  0mm
22:39 47.4 °F /  8.6 °C 34.6 °F /  1.4 °C 30.02in /  1016.5hPa East 2.0mph /  3.2km/h 6.0mph /  9.7km/h 61% 0.00in /  0mm
22:44 47.4 °F /  8.6 °C 34.6 °F /  1.4 °C 30.03in /  1016.8hPa East 2.0mph /  3.2km/h 6.0mph /  9.7km/h 61% 0.00in /  0mm
22:49 47.3 °F /  8.5 °C 34.5 °F /  1.4 °C 30.03in /  1016.8hPa ENE 5.0mph /  8km/h 6.0mph /  9.7km/h 61% 0.00in /  0mm
22:54 47.2 °F /  8.4 °C 34.0 °F /  1.1 °C 30.03in /  1016.8hPa ENE 3.0mph /  4.8km/h 7.0mph /  11.3km/h 60% 0.00in /  0mm
22:59 47.2 °F /  8.4 °C 34.0 °F /  1.1 °C 30.03in /  1016.8hPa ENE 4.0mph /  6.4km/h 8.0mph /  12.9km/h 60% 0.00in /  0mm
23:04 47.2 °F /  8.4 °C 34.0 °F /  1.1 °C 30.03in /  1016.8hPa ENE 3.0mph /  4.8km/h 9.0mph /  14.5km/h 60% 0.00in /  0mm
23:09 47.1 °F /  8.4 °C 33.9 °F /  1.1 °C 30.03in /  1016.8hPa ENE 2.0mph /  3.2km/h 6.0mph /  9.7km/h 60% 0.00in /  0mm
23:14 47.0 °F /  8.3 °C 34.2 °F /  1.2 °C 30.03in /  1016.8hPa NE 1.0mph /  1.6km/h 6.0mph /  9.7km/h 61% 0.00in /  0mm
23:19 46.8 °F /  8.2 °C 34.5 °F /  1.4 °C 30.03in /  1016.8hPa ENE 2.0mph /  3.2km/h 7.0mph /  11.3km/h 62% 0.00in /  0mm
23:24 46.7 °F /  8.2 °C 34.8 °F /  1.6 °C 30.04in /  1017.2hPa ENE 2.0mph /  3.2km/h 7.0mph /  11.3km/h 63% 0.00in /  0mm
23:29 46.7 °F /  8.2 °C 34.8 °F /  1.6 °C 30.04in /  1017.2hPa East 2.0mph /  3.2km/h 7.0mph /  11.3km/h 63% 0.00in /  0mm
23:34 46.5 °F /  8.1 °C 34.6 °F /  1.4 °C 30.04in /  1017.2hPa East 3.0mph /  4.8km/h 8.0mph /  12.9km/h 63% 0.00in /  0mm
23:39 46.5 °F /  8.1 °C 34.6 °F /  1.4 °C 30.03in /  1016.8hPa East 3.0mph /  4.8km/h 8.0mph /  12.9km/h 63% 0.00in /  0mm
23:44 46.4 °F /  8 °C 34.5 °F /  1.4 °C 30.04in /  1017.2hPa NE 6.0mph /  9.7km/h 8.0mph /  12.9km/h 63% 0.00in /  0mm
23:49 46.3 °F /  7.9 °C 34.4 °F /  1.3 °C 30.04in /  1017.2hPa NE 7.0mph /  11.3km/h 12.0mph /  19.3km/h 63% 0.00in /  0mm
23:54 46.2 °F /  7.9 °C 34.7 °F /  1.5 °C 30.04in /  1017.2hPa ENE 5.0mph /  8km/h 12.0mph /  19.3km/h 64% 0.00in /  0mm
23:59 46.2 °F /  7.9 °C 35.1 °F /  1.7 °C 30.04in /  1017.2hPa ENE 4.0mph /  6.4km/h 7.0mph /  11.3km/h 65% 0.00in /  0mm
Buffalo, New York, USA
Compliments of Weather Underground - 2.5 mb